Terminal Aerodrome Forecast
Issued by NWS Bismarck, ND

Home | Current Version | Previous Version | Text Only | Print | Product List | Glossary Off
Versions: 1 2 3 4 5 6 7 8 9 10 11 12 13 14

000
FTUS43 KBIS 280111 AAB
TAFBIS
TAF AMD
KBIS 280111Z 2801/2824 17008KT P6SM FEW250
     FM280500 20003KT 6SM BR SKC
      TEMPO 2809/2813 2SM BR
     FM282000 27010KT P6SM FEW250=

USA.gov is the U.S. government's official web portal to all federal, state and local government web resources and services.